sensor_id;sensor_type;location;lat;lon;timestamp;temperature;humidity
48208;DHT22;33997;53.278;9.708;2023-04-25T00:01:04;7.00;96.90
48208;DHT22;33997;53.278;9.708;2023-04-25T00:03:31;7.00;97.10
48208;DHT22;33997;53.278;9.708;2023-04-25T00:05:57;6.90;97.30
48208;DHT22;33997;53.278;9.708;2023-04-25T00:08:24;6.90;97.40
48208;DHT22;33997;53.278;9.708;2023-04-25T00:10:50;6.90;97.70
48208;DHT22;33997;53.278;9.708;2023-04-25T00:13:15;6.80;97.90
48208;DHT22;33997;53.278;9.708;2023-04-25T00:15:42;6.80;97.90
48208;DHT22;33997;53.278;9.708;2023-04-25T00:18:08;6.80;98.00
48208;DHT22;33997;53.278;9.708;2023-04-25T00:20:35;6.80;98.20
48208;DHT22;33997;53.278;9.708;2023-04-25T00:23:00;6.80;98.10
48208;DHT22;33997;53.278;9.708;2023-04-25T00:25:26;6.80;98.10
48208;DHT22;33997;53.278;9.708;2023-04-25T00:27:52;6.70;98.10
48208;DHT22;33997;53.278;9.708;2023-04-25T00:30:17;6.60;97.90
48208;DHT22;33997;53.278;9.708;2023-04-25T00:32:42;6.60;97.90
48208;DHT22;33997;53.278;9.708;2023-04-25T00:35:09;6.60;97.80
48208;DHT22;33997;53.278;9.708;2023-04-25T00:37:34;6.60;97.80
48208;DHT22;33997;53.278;9.708;2023-04-25T00:40:00;6.60;97.80
48208;DHT22;33997;53.278;9.708;2023-04-25T00:42:25;6.50;97.70
48208;DHT22;33997;53.278;9.708;2023-04-25T00:44:52;6.60;97.90
48208;DHT22;33997;53.278;9.708;2023-04-25T00:47:18;6.50;97.90
48208;DHT22;33997;53.278;9.708;2023-04-25T00:49:44;6.50;97.90
48208;DHT22;33997;53.278;9.708;2023-04-25T00:52:10;6.50;97.80
48208;DHT22;33997;53.278;9.708;2023-04-25T00:54:36;6.50;97.60
48208;DHT22;33997;53.278;9.708;2023-04-25T00:57:02;6.40;97.30
48208;DHT22;33997;53.278;9.708;2023-04-25T00:59:28;6.40;97.40
48208;DHT22;33997;53.278;9.708;2023-04-25T01:01:56;6.40;97.40
48208;DHT22;33997;53.278;9.708;2023-04-25T01:04:21;6.40;97.40
48208;DHT22;33997;53.278;9.708;2023-04-25T01:06:47;6.40;97.30
48208;DHT22;33997;53.278;9.708;2023-04-25T01:09:13;6.30;97.10
48208;DHT22;33997;53.278;9.708;2023-04-25T01:11:38;6.40;97.20
48208;DHT22;33997;53.278;9.708;2023-04-25T01:14:05;6.30;96.80
48208;DHT22;33997;53.278;9.708;2023-04-25T01:16:31;6.30;96.80
48208;DHT22;33997;53.278;9.708;2023-04-25T01:18:58;6.30;96.70
48208;DHT22;33997;53.278;9.708;2023-04-25T01:21:24;6.30;96.80
48208;DHT22;33997;53.278;9.708;2023-04-25T01:23:52;6.20;96.40
48208;DHT22;33997;53.278;9.708;2023-04-25T01:26:19;6.30;96.30
48208;DHT22;33997;53.278;9.708;2023-04-25T01:28:46;6.20;96.10
48208;DHT22;33997;53.278;9.708;2023-04-25T01:31:12;6.20;95.80
48208;DHT22;33997;53.278;9.708;2023-04-25T01:33:39;6.20;95.80
48208;DHT22;33997;53.278;9.708;2023-04-25T01:36:05;6.10;95.70
48208;DHT22;33997;53.278;9.708;2023-04-25T01:38:31;6.10;95.30
48208;DHT22;33997;53.278;9.708;2023-04-25T01:40:57;6.10;95.40
48208;DHT22;33997;53.278;9.708;2023-04-25T01:43:23;6.10;94.50
48208;DHT22;33997;53.278;9.708;2023-04-25T01:45:49;6.10;94.60
48208;DHT22;33997;53.278;9.708;2023-04-25T01:48:15;6.00;94.60
48208;DHT22;33997;53.278;9.708;2023-04-25T01:50:41;6.00;94.70
48208;DHT22;33997;53.278;9.708;2023-04-25T01:53:09;5.90;94.30
48208;DHT22;33997;53.278;9.708;2023-04-25T01:55:35;5.90;94.10
48208;DHT22;33997;53.278;9.708;2023-04-25T01:58:02;5.80;94.50
48208;DHT22;33997;53.278;9.708;2023-04-25T02:00:28;5.90;94.60
48208;DHT22;33997;53.278;9.708;2023-04-25T02:02:53;5.80;94.20
48208;DHT22;33997;53.278;9.708;2023-04-25T02:05:22;5.80;93.80
48208;DHT22;33997;53.278;9.708;2023-04-25T02:07:48;5.80;94.00
48208;DHT22;33997;53.278;9.708;2023-04-25T02:10:14;5.70;94.00
48208;DHT22;33997;53.278;9.708;2023-04-25T02:12:40;5.70;93.70
48208;DHT22;33997;53.278;9.708;2023-04-25T02:15:06;5.60;93.70
48208;DHT22;33997;53.278;9.708;2023-04-25T02:17:31;5.50;93.80
48208;DHT22;33997;53.278;9.708;2023-04-25T02:19:57;5.50;93.90
48208;DHT22;33997;53.278;9.708;2023-04-25T02:22:23;5.50;93.80
48208;DHT22;33997;53.278;9.708;2023-04-25T02:24:48;5.40;93.40
48208;DHT22;33997;53.278;9.708;2023-04-25T02:27:14;5.40;93.20
48208;DHT22;33997;53.278;9.708;2023-04-25T02:29:39;5.40;93.00
48208;DHT22;33997;53.278;9.708;2023-04-25T02:32:05;5.40;92.20
48208;DHT22;33997;53.278;9.708;2023-04-25T02:34:30;5.40;92.00
48208;DHT22;33997;53.278;9.708;2023-04-25T02:36:56;5.40;91.60
48208;DHT22;33997;53.278;9.708;2023-04-25T02:39:21;5.40;91.70
48208;DHT22;33997;53.278;9.708;2023-04-25T02:41:47;5.40;92.10
48208;DHT22;33997;53.278;9.708;2023-04-25T02:44:12;5.40;91.60
48208;DHT22;33997;53.278;9.708;2023-04-25T02:46:38;5.40;91.50
48208;DHT22;33997;53.278;9.708;2023-04-25T02:49:04;5.30;91.10
48208;DHT22;33997;53.278;9.708;2023-04-25T02:51:30;5.40;90.90
48208;DHT22;33997;53.278;9.708;2023-04-25T02:53:55;5.30;90.20
48208;DHT22;33997;53.278;9.708;2023-04-25T02:56:21;5.40;90.10
48208;DHT22;33997;53.278;9.708;2023-04-25T02:58:46;5.30;89.80
48208;DHT22;33997;53.278;9.708;2023-04-25T03:01:12;5.30;89.50
48208;DHT22;33997;53.278;9.708;2023-04-25T03:03:37;5.40;90.40
48208;DHT22;33997;53.278;9.708;2023-04-25T03:06:03;5.30;89.90
48208;DHT22;33997;53.278;9.708;2023-04-25T03:08:28;5.30;90.20
48208;DHT22;33997;53.278;9.708;2023-04-25T03:10:58;5.30;89.80
48208;DHT22;33997;53.278;9.708;2023-04-25T03:13:24;5.30;89.70
48208;DHT22;33997;53.278;9.708;2023-04-25T03:15:49;5.20;90.30
48208;DHT22;33997;53.278;9.708;2023-04-25T03:18:15;5.20;90.50
48208;DHT22;33997;53.278;9.708;2023-04-25T03:20:41;5.10;90.40
48208;DHT22;33997;53.278;9.708;2023-04-25T03:23:07;5.00;90.20
48208;DHT22;33997;53.278;9.708;2023-04-25T03:25:32;5.00;90.30
48208;DHT22;33997;53.278;9.708;2023-04-25T03:27:58;4.80;91.20
48208;DHT22;33997;53.278;9.708;2023-04-25T03:30:23;4.80;91.60
48208;DHT22;33997;53.278;9.708;2023-04-25T03:32:49;4.70;91.90
48208;DHT22;33997;53.278;9.708;2023-04-25T03:35:14;4.70;92.60
48208;DHT22;33997;53.278;9.708;2023-04-25T03:37:40;4.70;92.20
48208;DHT22;33997;53.278;9.708;2023-04-25T03:40:06;4.70;92.20
48208;DHT22;33997;53.278;9.708;2023-04-25T03:42:32;4.70;92.50
48208;DHT22;33997;53.278;9.708;2023-04-25T03:44:57;4.70;92.60
48208;DHT22;33997;53.278;9.708;2023-04-25T03:47:22;4.70;92.30
48208;DHT22;33997;53.278;9.708;2023-04-25T03:49:48;4.70;92.50
48208;DHT22;33997;53.278;9.708;2023-04-25T03:52:16;4.70;92.80
48208;DHT22;33997;53.278;9.708;2023-04-25T03:54:42;4.70;92.50
48208;DHT22;33997;53.278;9.708;2023-04-25T03:57:07;4.60;92.40
48208;DHT22;33997;53.278;9.708;2023-04-25T03:59:33;4.60;92.60
48208;DHT22;33997;53.278;9.708;2023-04-25T04:01:58;4.60;92.60
48208;DHT22;33997;53.278;9.708;2023-04-25T04:04:24;4.40;92.60
48208;DHT22;33997;53.278;9.708;2023-04-25T04:06:49;4.30;92.90
48208;DHT22;33997;53.278;9.708;2023-04-25T04:09:16;4.40;92.80
48208;DHT22;33997;53.278;9.708;2023-04-25T04:11:41;4.40;92.80
48208;DHT22;33997;53.278;9.708;2023-04-25T04:14:07;4.40;92.90
48208;DHT22;33997;53.278;9.708;2023-04-25T04:16:33;4.40;92.90
48208;DHT22;33997;53.278;9.708;2023-04-25T04:18:58;4.50;92.60
48208;DHT22;33997;53.278;9.708;2023-04-25T04:21:24;4.50;92.50
48208;DHT22;33997;53.278;9.708;2023-04-25T04:23:50;4.60;92.00
48208;DHT22;33997;53.278;9.708;2023-04-25T04:26:15;4.60;92.00
48208;DHT22;33997;53.278;9.708;2023-04-25T04:28:42;4.70;91.90
48208;DHT22;33997;53.278;9.708;2023-04-25T04:31:09;4.70;91.10
48208;DHT22;33997;53.278;9.708;2023-04-25T04:33:35;4.70;90.30
48208;DHT22;33997;53.278;9.708;2023-04-25T04:36:02;4.70;90.40
48208;DHT22;33997;53.278;9.708;2023-04-25T04:38:28;4.70;89.60
48208;DHT22;33997;53.278;9.708;2023-04-25T04:40:54;4.70;89.70
48208;DHT22;33997;53.278;9.708;2023-04-25T04:43:19;4.70;90.50
48208;DHT22;33997;53.278;9.708;2023-04-25T04:45:45;4.60;90.70
48208;DHT22;33997;53.278;9.708;2023-04-25T04:48:11;4.50;90.50
48208;DHT22;33997;53.278;9.708;2023-04-25T04:50:39;4.40;90.20
48208;DHT22;33997;53.278;9.708;2023-04-25T04:53:05;4.30;90.30
48208;DHT22;33997;53.278;9.708;2023-04-25T04:55:31;4.30;90.60
48208;DHT22;33997;53.278;9.708;2023-04-25T04:57:56;4.40;90.80
48208;DHT22;33997;53.278;9.708;2023-04-25T05:00:22;4.50;91.10
48208;DHT22;33997;53.278;9.708;2023-04-25T05:02:47;4.60;91.00
48208;DHT22;33997;53.278;9.708;2023-04-25T05:05:13;4.60;90.70
48208;DHT22;33997;53.278;9.708;2023-04-25T05:07:38;4.60;90.50
48208;DHT22;33997;53.278;9.708;2023-04-25T05:10:04;4.70;90.80
48208;DHT22;33997;53.278;9.708;2023-04-25T05:12:30;4.70;90.50
48208;DHT22;33997;53.278;9.708;2023-04-25T05:14:55;4.70;90.10
48208;DHT22;33997;53.278;9.708;2023-04-25T05:17:21;4.70;89.80
48208;DHT22;33997;53.278;9.708;2023-04-25T05:19:46;4.80;90.00
48208;DHT22;33997;53.278;9.708;2023-04-25T05:22:12;4.80;89.20
48208;DHT22;33997;53.278;9.708;2023-04-25T05:24:37;4.80;89.10
48208;DHT22;33997;53.278;9.708;2023-04-25T05:27:03;4.90;89.30
48208;DHT22;33997;53.278;9.708;2023-04-25T05:29:28;4.90;88.80
48208;DHT22;33997;53.278;9.708;2023-04-25T05:31:54;4.90;88.80
48208;DHT22;33997;53.278;9.708;2023-04-25T05:34:19;4.90;88.90
48208;DHT22;33997;53.278;9.708;2023-04-25T05:36:45;4.90;89.20
48208;DHT22;33997;53.278;9.708;2023-04-25T05:39:14;4.90;88.90
48208;DHT22;33997;53.278;9.708;2023-04-25T05:41:40;4.90;88.80
48208;DHT22;33997;53.278;9.708;2023-04-25T05:44:05;4.90;88.40
48208;DHT22;33997;53.278;9.708;2023-04-25T05:46:31;5.00;88.80
48208;DHT22;33997;53.278;9.708;2023-04-25T05:48:56;4.90;88.50
48208;DHT22;33997;53.278;9.708;2023-04-25T05:51:21;5.00;88.10
48208;DHT22;33997;53.278;9.708;2023-04-25T05:53:47;5.00;88.50
48208;DHT22;33997;53.278;9.708;2023-04-25T05:56:12;5.10;89.00
48208;DHT22;33997;53.278;9.708;2023-04-25T05:58:38;5.10;87.40
48208;DHT22;33997;53.278;9.708;2023-04-25T06:01:04;5.10;88.30
48208;DHT22;33997;53.278;9.708;2023-04-25T06:03:30;5.10;87.50
48208;DHT22;33997;53.278;9.708;2023-04-25T06:05:55;5.20;87.80
48208;DHT22;33997;53.278;9.708;2023-04-25T06:08:21;5.30;88.20
48208;DHT22;33997;53.278;9.708;2023-04-25T06:10:47;5.30;87.30
48208;DHT22;33997;53.278;9.708;2023-04-25T06:13:12;5.40;88.00
48208;DHT22;33997;53.278;9.708;2023-04-25T06:15:38;5.50;88.40
48208;DHT22;33997;53.278;9.708;2023-04-25T06:18:03;5.50;87.90
48208;DHT22;33997;53.278;9.708;2023-04-25T06:20:29;5.50;87.10
48208;DHT22;33997;53.278;9.708;2023-04-25T06:22:54;5.60;87.60
48208;DHT22;33997;53.278;9.708;2023-04-25T06:25:20;5.50;86.90
48208;DHT22;33997;53.278;9.708;2023-04-25T06:27:45;5.50;86.80
48208;DHT22;33997;53.278;9.708;2023-04-25T06:30:11;5.60;87.80
48208;DHT22;33997;53.278;9.708;2023-04-25T06:32:40;5.60;87.50
48208;DHT22;33997;53.278;9.708;2023-04-25T06:35:06;5.60;87.10
48208;DHT22;33997;53.278;9.708;2023-04-25T06:37:31;5.60;86.80
48208;DHT22;33997;53.278;9.708;2023-04-25T06:39:57;5.60;87.20
48208;DHT22;33997;53.278;9.708;2023-04-25T06:42:22;5.60;86.80
48208;DHT22;33997;53.278;9.708;2023-04-25T06:44:48;5.50;86.30
48208;DHT22;33997;53.278;9.708;2023-04-25T06:47:14;5.70;86.40
48208;DHT22;33997;53.278;9.708;2023-04-25T06:49:39;5.90;86.80
48208;DHT22;33997;53.278;9.708;2023-04-25T06:52:05;6.00;85.60
48208;DHT22;33997;53.278;9.708;2023-04-25T06:54:30;5.90;84.90
48208;DHT22;33997;53.278;9.708;2023-04-25T06:56:56;6.00;85.20
48208;DHT22;33997;53.278;9.708;2023-04-25T06:59:22;5.90;84.40
48208;DHT22;33997;53.278;9.708;2023-04-25T07:01:47;6.00;84.30
48208;DHT22;33997;53.278;9.708;2023-04-25T07:04:13;5.90;82.80
48208;DHT22;33997;53.278;9.708;2023-04-25T07:06:38;6.00;83.10
48208;DHT22;33997;53.278;9.708;2023-04-25T07:09:08;6.00;84.00
48208;DHT22;33997;53.278;9.708;2023-04-25T07:11:35;6.10;83.20
48208;DHT22;33997;53.278;9.708;2023-04-25T07:14:01;6.10;83.80
48208;DHT22;33997;53.278;9.708;2023-04-25T07:16:26;6.00;84.80
48208;DHT22;33997;53.278;9.708;2023-04-25T07:18:52;5.80;85.20
48208;DHT22;33997;53.278;9.708;2023-04-25T07:21:17;5.50;86.60
48208;DHT22;33997;53.278;9.708;2023-04-25T07:23:43;5.50;88.10
48208;DHT22;33997;53.278;9.708;2023-04-25T07:26:08;5.50;88.30
48208;DHT22;33997;53.278;9.708;2023-04-25T07:28:34;5.50;88.00
48208;DHT22;33997;53.278;9.708;2023-04-25T07:30:59;5.60;87.90
48208;DHT22;33997;53.278;9.708;2023-04-25T07:33:25;5.60;86.60
48208;DHT22;33997;53.278;9.708;2023-04-25T07:35:50;5.60;87.30
48208;DHT22;33997;53.278;9.708;2023-04-25T07:38:16;5.60;87.80
48208;DHT22;33997;53.278;9.708;2023-04-25T07:40:41;5.60;88.60
48208;DHT22;33997;53.278;9.708;2023-04-25T07:43:07;5.30;89.30
48208;DHT22;33997;53.278;9.708;2023-04-25T07:45:32;5.30;90.30
48208;DHT22;33997;53.278;9.708;2023-04-25T07:47:58;5.10;89.50
48208;DHT22;33997;53.278;9.708;2023-04-25T07:50:23;4.80;88.80
48208;DHT22;33997;53.278;9.708;2023-04-25T07:52:49;4.70;89.60
48208;DHT22;33997;53.278;9.708;2023-04-25T07:55:14;4.80;88.60
48208;DHT22;33997;53.278;9.708;2023-04-25T07:57:40;5.10;88.10
48208;DHT22;33997;53.278;9.708;2023-04-25T08:00:06;5.30;88.80
48208;DHT22;33997;53.278;9.708;2023-04-25T08:02:34;5.50;88.50
48208;DHT22;33997;53.278;9.708;2023-04-25T08:05:03;5.60;87.40
48208;DHT22;33997;53.278;9.708;2023-04-25T08:07:29;5.60;87.80
48208;DHT22;33997;53.278;9.708;2023-04-25T08:09:54;5.60;87.70
48208;DHT22;33997;53.278;9.708;2023-04-25T08:12:20;5.60;88.40
48208;DHT22;33997;53.278;9.708;2023-04-25T08:14:45;6.00;88.40
48208;DHT22;33997;53.278;9.708;2023-04-25T08:17:11;6.30;87.70
48208;DHT22;33997;53.278;9.708;2023-04-25T08:19:36;6.90;88.10
48208;DHT22;33997;53.278;9.708;2023-04-25T08:22:02;7.30;86.70
48208;DHT22;33997;53.278;9.708;2023-04-25T08:24:28;7.50;83.50
48208;DHT22;33997;53.278;9.708;2023-04-25T08:26:54;7.70;84.40
48208;DHT22;33997;53.278;9.708;2023-04-25T08:29:19;7.50;84.40
48208;DHT22;33997;53.278;9.708;2023-04-25T08:31:45;7.20;84.30
48208;DHT22;33997;53.278;9.708;2023-04-25T08:34:10;7.00;85.30
48208;DHT22;33997;53.278;9.708;2023-04-25T08:36:36;6.50;86.90
48208;DHT22;33997;53.278;9.708;2023-04-25T08:39:02;6.10;87.20
48208;DHT22;33997;53.278;9.708;2023-04-25T08:41:28;5.30;88.30
48208;DHT22;33997;53.278;9.708;2023-04-25T08:43:56;5.10;88.90
48208;DHT22;33997;53.278;9.708;2023-04-25T08:46:23;5.20;89.40
48208;DHT22;33997;53.278;9.708;2023-04-25T08:48:49;5.40;89.30
48208;DHT22;33997;53.278;9.708;2023-04-25T08:51:22;5.40;88.60
48208;DHT22;33997;53.278;9.708;2023-04-25T08:53:52;5.50;87.80
48208;DHT22;33997;53.278;9.708;2023-04-25T08:56:18;5.70;87.50
48208;DHT22;33997;53.278;9.708;2023-04-25T08:58:47;6.00;88.00
48208;DHT22;33997;53.278;9.708;2023-04-25T09:01:13;6.20;88.40
48208;DHT22;33997;53.278;9.708;2023-04-25T09:03:38;6.20;87.00
48208;DHT22;33997;53.278;9.708;2023-04-25T09:06:03;6.40;87.70
48208;DHT22;33997;53.278;9.708;2023-04-25T09:08:29;6.40;86.50
48208;DHT22;33997;53.278;9.708;2023-04-25T09:10:55;6.50;85.80
48208;DHT22;33997;53.278;9.708;2023-04-25T09:13:25;6.70;86.30
48208;DHT22;33997;53.278;9.708;2023-04-25T09:15:53;6.70;85.70
48208;DHT22;33997;53.278;9.708;2023-04-25T09:20:51;7.50;84.70
48208;DHT22;33997;53.278;9.708;2023-04-25T09:23:18;7.30;83.80
48208;DHT22;33997;53.278;9.708;2023-04-25T09:25:50;8.00;84.50
48208;DHT22;33997;53.278;9.708;2023-04-25T09:28:16;8.30;84.10
48208;DHT22;33997;53.278;9.708;2023-04-25T09:30:47;8.10;80.80
48208;DHT22;33997;53.278;9.708;2023-04-25T09:33:13;8.60;80.50
48208;DHT22;33997;53.278;9.708;2023-04-25T09:35:40;8.50;79.80
48208;DHT22;33997;53.278;9.708;2023-04-25T09:38:11;8.50;80.50
48208;DHT22;33997;53.278;9.708;2023-04-25T09:40:40;8.60;79.50
48208;DHT22;33997;53.278;9.708;2023-04-25T09:43:10;8.30;79.90
48208;DHT22;33997;53.278;9.708;2023-04-25T09:45:43;8.50;80.60
48208;DHT22;33997;53.278;9.708;2023-04-25T09:48:17;8.60;80.80
48208;DHT22;33997;53.278;9.708;2023-04-25T09:50:42;8.80;80.90
48208;DHT22;33997;53.278;9.708;2023-04-25T09:53:08;8.40;79.30
48208;DHT22;33997;53.278;9.708;2023-04-25T09:55:34;8.30;80.20
48208;DHT22;33997;53.278;9.708;2023-04-25T09:58:04;8.10;79.90
48208;DHT22;33997;53.278;9.708;2023-04-25T10:00:32;7.00;84.60
48208;DHT22;33997;53.278;9.708;2023-04-25T10:03:01;6.20;89.20
48208;DHT22;33997;53.278;9.708;2023-04-25T10:05:30;5.60;91.10
48208;DHT22;33997;53.278;9.708;2023-04-25T10:07:58;5.60;90.60
48208;DHT22;33997;53.278;9.708;2023-04-25T10:10:24;5.90;89.50
48208;DHT22;33997;53.278;9.708;2023-04-25T10:12:53;6.10;87.10
48208;DHT22;33997;53.278;9.708;2023-04-25T10:15:19;6.60;86.50
48208;DHT22;33997;53.278;9.708;2023-04-25T10:17:45;6.90;83.70
48208;DHT22;33997;53.278;9.708;2023-04-25T10:20:11;7.10;84.00
48208;DHT22;33997;53.278;9.708;2023-04-25T10:22:42;7.20;83.00
48208;DHT22;33997;53.278;9.708;2023-04-25T10:25:08;7.90;84.20
48208;DHT22;33997;53.278;9.708;2023-04-25T10:27:34;8.50;82.20
48208;DHT22;33997;53.278;9.708;2023-04-25T10:30:07;8.60;79.10
48208;DHT22;33997;53.278;9.708;2023-04-25T10:32:36;8.70;75.50
48208;DHT22;33997;53.278;9.708;2023-04-25T10:35:19;8.80;74.70
48208;DHT22;33997;53.278;9.708;2023-04-25T10:40:24;9.00;74.40
48208;DHT22;33997;53.278;9.708;2023-04-25T10:42:52;9.40;73.80
48208;DHT22;33997;53.278;9.708;2023-04-25T10:45:18;9.50;72.50
48208;DHT22;33997;53.278;9.708;2023-04-25T10:47:45;9.70;70.10
48208;DHT22;33997;53.278;9.708;2023-04-25T10:50:11;9.80;70.20
48208;DHT22;33997;53.278;9.708;2023-04-25T10:52:39;10.10;67.80
48208;DHT22;33997;53.278;9.708;2023-04-25T10:55:06;10.50;65.30
48208;DHT22;33997;53.278;9.708;2023-04-25T10:57:41;11.00;68.30
48208;DHT22;33997;53.278;9.708;2023-04-25T11:00:17;10.90;67.20
48208;DHT22;33997;53.278;9.708;2023-04-25T11:02:48;9.30;71.60
48208;DHT22;33997;53.278;9.708;2023-04-25T11:05:20;7.90;75.10
48208;DHT22;33997;53.278;9.708;2023-04-25T11:07:52;7.70;79.80
48208;DHT22;33997;53.278;9.708;2023-04-25T11:10:20;7.10;79.30
48208;DHT22;33997;53.278;9.708;2023-04-25T11:12:46;6.90;79.60
48208;DHT22;33997;53.278;9.708;2023-04-25T11:15:12;6.80;80.40
48208;DHT22;33997;53.278;9.708;2023-04-25T11:17:39;6.80;78.00
48208;DHT22;33997;53.278;9.708;2023-04-25T11:20:07;7.00;78.00
48208;DHT22;33997;53.278;9.708;2023-04-25T11:22:37;7.30;77.40
48208;DHT22;33997;53.278;9.708;2023-04-25T11:25:10;7.70;76.20
48208;DHT22;33997;53.278;9.708;2023-04-25T11:27:56;8.20;74.80
48208;DHT22;33997;53.278;9.708;2023-04-25T11:30:23;8.50;74.40
48208;DHT22;33997;53.278;9.708;2023-04-25T11:32:49;8.30;71.20
48208;DHT22;33997;53.278;9.708;2023-04-25T11:35:15;8.50;71.90
48208;DHT22;33997;53.278;9.708;2023-04-25T11:37:42;8.90;72.30
48208;DHT22;33997;53.278;9.708;2023-04-25T11:40:08;9.10;70.10
48208;DHT22;33997;53.278;9.708;2023-04-25T11:42:41;9.50;67.30
48208;DHT22;33997;53.278;9.708;2023-04-25T11:45:08;10.00;68.30
48208;DHT22;33997;53.278;9.708;2023-04-25T11:47:34;10.00;65.00
48208;DHT22;33997;53.278;9.708;2023-04-25T11:50:04;10.30;64.20
48208;DHT22;33997;53.278;9.708;2023-04-25T11:52:41;10.60;61.20
48208;DHT22;33997;53.278;9.708;2023-04-25T11:55:17;10.00;63.40
48208;DHT22;33997;53.278;9.708;2023-04-25T11:57:44;9.50;64.80
48208;DHT22;33997;53.278;9.708;2023-04-25T12:00:15;9.00;66.30
48208;DHT22;33997;53.278;9.708;2023-04-25T12:02:43;8.70;69.90
48208;DHT22;33997;53.278;9.708;2023-04-25T12:05:10;8.20;72.40
48208;DHT22;33997;53.278;9.708;2023-04-25T12:07:36;7.60;76.20
48208;DHT22;33997;53.278;9.708;2023-04-25T12:10:08;7.60;77.20
48208;DHT22;33997;53.278;9.708;2023-04-25T12:12:35;7.80;74.60
48208;DHT22;33997;53.278;9.708;2023-04-25T12:15:13;8.00;72.30
48208;DHT22;33997;53.278;9.708;2023-04-25T12:17:41;8.30;72.70
48208;DHT22;33997;53.278;9.708;2023-04-25T12:20:12;8.40;69.20
48208;DHT22;33997;53.278;9.708;2023-04-25T12:22:39;9.20;63.90
48208;DHT22;33997;53.278;9.708;2023-04-25T12:25:05;9.70;63.20
48208;DHT22;33997;53.278;9.708;2023-04-25T12:27:32;10.20;60.80
48208;DHT22;33997;53.278;9.708;2023-04-25T12:29:58;10.10;61.30
48208;DHT22;33997;53.278;9.708;2023-04-25T12:32:24;10.40;61.50
48208;DHT22;33997;53.278;9.708;2023-04-25T12:34:50;9.90;60.60
48208;DHT22;33997;53.278;9.708;2023-04-25T12:37:16;10.10;60.80
48208;DHT22;33997;53.278;9.708;2023-04-25T12:39:41;9.60;62.40
48208;DHT22;33997;53.278;9.708;2023-04-25T12:42:07;9.10;67.40
48208;DHT22;33997;53.278;9.708;2023-04-25T12:44:38;8.00;72.60
48208;DHT22;33997;53.278;9.708;2023-04-25T12:47:04;7.40;76.70
48208;DHT22;33997;53.278;9.708;2023-04-25T12:49:30;7.10;81.80
48208;DHT22;33997;53.278;9.708;2023-04-25T12:51:56;7.00;82.10
48208;DHT22;33997;53.278;9.708;2023-04-25T12:54:21;7.00;80.80
48208;DHT22;33997;53.278;9.708;2023-04-25T12:56:47;7.00;80.90
48208;DHT22;33997;53.278;9.708;2023-04-25T12:59:13;7.30;78.70
48208;DHT22;33997;53.278;9.708;2023-04-25T13:01:38;7.50;78.00
48208;DHT22;33997;53.278;9.708;2023-04-25T13:04:04;7.80;77.00
48208;DHT22;33997;53.278;9.708;2023-04-25T13:06:29;8.30;74.80
48208;DHT22;33997;53.278;9.708;2023-04-25T13:08:58;8.50;70.20
48208;DHT22;33997;53.278;9.708;2023-04-25T13:11:23;8.70;70.60
48208;DHT22;33997;53.278;9.708;2023-04-25T13:13:49;9.10;70.20
48208;DHT22;33997;53.278;9.708;2023-04-25T13:16:14;9.20;68.30
48208;DHT22;33997;53.278;9.708;2023-04-25T13:18:40;9.30;67.60
48208;DHT22;33997;53.278;9.708;2023-04-25T13:21:06;10.10;63.20
48208;DHT22;33997;53.278;9.708;2023-04-25T13:23:31;10.70;61.60
48208;DHT22;33997;53.278;9.708;2023-04-25T13:25:57;11.40;61.30
48208;DHT22;33997;53.278;9.708;2023-04-25T13:28:24;11.10;58.30
48208;DHT22;33997;53.278;9.708;2023-04-25T13:30:49;10.30;61.00
48208;DHT22;33997;53.278;9.708;2023-04-25T13:33:15;10.70;58.80
48208;DHT22;33997;53.278;9.708;2023-04-25T13:35:41;10.80;58.10
48208;DHT22;33997;53.278;9.708;2023-04-25T13:38:07;11.10;55.40
48208;DHT22;33997;53.278;9.708;2023-04-25T13:40:32;11.00;57.60
48208;DHT22;33997;53.278;9.708;2023-04-25T13:42:58;11.40;57.60
48208;DHT22;33997;53.278;9.708;2023-04-25T13:45:24;11.70;57.10
48208;DHT22;33997;53.278;9.708;2023-04-25T13:47:50;11.80;56.20
48208;DHT22;33997;53.278;9.708;2023-04-25T13:50:16;12.30;55.20
48208;DHT22;33997;53.278;9.708;2023-04-25T13:52:42;11.00;55.50
48208;DHT22;33997;53.278;9.708;2023-04-25T13:55:08;10.10;56.50
48208;DHT22;33997;53.278;9.708;2023-04-25T13:57:34;9.60;60.50
48208;DHT22;33997;53.278;9.708;2023-04-25T14:00:00;9.20;61.60
48208;DHT22;33997;53.278;9.708;2023-04-25T14:02:30;9.30;62.40
48208;DHT22;33997;53.278;9.708;2023-04-25T14:04:55;9.80;58.30
48208;DHT22;33997;53.278;9.708;2023-04-25T14:07:21;10.20;57.30
48208;DHT22;33997;53.278;9.708;2023-04-25T14:09:46;11.10;56.90
48208;DHT22;33997;53.278;9.708;2023-04-25T14:12:12;10.80;55.20
48208;DHT22;33997;53.278;9.708;2023-04-25T14:14:37;11.10;53.50
48208;DHT22;33997;53.278;9.708;2023-04-25T14:17:03;11.60;53.30
48208;DHT22;33997;53.278;9.708;2023-04-25T14:19:29;11.40;53.30
48208;DHT22;33997;53.278;9.708;2023-04-25T14:21:55;12.20;53.10
48208;DHT22;33997;53.278;9.708;2023-04-25T14:24:20;12.50;51.90
48208;DHT22;33997;53.278;9.708;2023-04-25T14:26:46;12.20;51.40
48208;DHT22;33997;53.278;9.708;2023-04-25T14:29:11;12.50;52.70
48208;DHT22;33997;53.278;9.708;2023-04-25T14:31:38;11.60;53.60
48208;DHT22;33997;53.278;9.708;2023-04-25T14:34:06;11.10;57.40
48208;DHT22;33997;53.278;9.708;2023-04-25T14:36:33;10.60;59.20
48208;DHT22;33997;53.278;9.708;2023-04-25T14:38:59;10.10;57.50
48208;DHT22;33997;53.278;9.708;2023-04-25T14:41:25;10.70;54.60
48208;DHT22;33997;53.278;9.708;2023-04-25T14:43:51;11.70;50.50
48208;DHT22;33997;53.278;9.708;2023-04-25T14:46:18;12.10;50.10
48208;DHT22;33997;53.278;9.708;2023-04-25T14:48:43;12.50;48.90
48208;DHT22;33997;53.278;9.708;2023-04-25T14:51:09;12.30;50.40
48208;DHT22;33997;53.278;9.708;2023-04-25T14:53:34;11.70;50.50
48208;DHT22;33997;53.278;9.708;2023-04-25T14:56:00;11.70;52.80
48208;DHT22;33997;53.278;9.708;2023-04-25T14:58:25;12.10;51.50
48208;DHT22;33997;53.278;9.708;2023-04-25T15:00:51;12.30;52.60
48208;DHT22;33997;53.278;9.708;2023-04-25T15:03:17;12.50;51.20
48208;DHT22;33997;53.278;9.708;2023-04-25T15:05:43;13.00;49.90
48208;DHT22;33997;53.278;9.708;2023-04-25T15:08:09;12.30;49.70
48208;DHT22;33997;53.278;9.708;2023-04-25T15:10:35;12.70;49.90
48208;DHT22;33997;53.278;9.708;2023-04-25T15:13:01;13.30;48.50
48208;DHT22;33997;53.278;9.708;2023-04-25T15:15:26;13.80;47.10
48208;DHT22;33997;53.278;9.708;2023-04-25T15:17:52;13.70;45.70
48208;DHT22;33997;53.278;9.708;2023-04-25T15:20:19;13.20;47.50
48208;DHT22;33997;53.278;9.708;2023-04-25T15:22:44;12.50;50.60
48208;DHT22;33997;53.278;9.708;2023-04-25T15:25:10;11.30;51.70
48208;DHT22;33997;53.278;9.708;2023-04-25T15:27:38;11.80;51.20
48208;DHT22;33997;53.278;9.708;2023-04-25T15:30:07;11.80;51.30
48208;DHT22;33997;53.278;9.708;2023-04-25T15:32:34;11.60;51.40
48208;DHT22;33997;53.278;9.708;2023-04-25T15:35:23;11.70;51.40
48208;DHT22;33997;53.278;9.708;2023-04-25T15:37:48;10.60;53.90
48208;DHT22;33997;53.278;9.708;2023-04-25T15:40:16;9.70;55.80
48208;DHT22;33997;53.278;9.708;2023-04-25T15:42:43;9.50;57.50